Time,TemperatureF,DewpointF,PressureIn,WindDirection,WindDirectionDegrees,WindSpeedMPH,WindSpeedGustMPH,Humidity,HourlyPrecipIn,Conditions,Clouds,dailyrainin,SolarRadiationWatts/m^2,SoftwareType,DateUTC
2013-02-24 00:00:00,29.7,29.5,29.85,WSW,250,1.0,2.0,99,0.00,,,0.00,0,Wunderground v.1.15,2013-02-24 05:00:00,
2013-02-24 00:02:00,29.7,29.5,29.85,WSW,247,1.0,2.0,99,0.00,,,0.00,0,Wunderground v.1.15,2013-02-24 05:02:00,
2013-02-24 00:03:00,29.7,29.5,29.85,WSW,251,1.0,2.0,99,0.00,,,0.00,0,Wunderground v.1.15,2013-02-24 05:03:00,
2013-02-24 00:04:00,29.7,29.5,29.84,WSW,250,1.0,2.0,99,0.00,,,0.00,0,Wunderground v.1.15,2013-02-24 05:04:00,
2013-02-24 00:09:00,29.7,29.5,29.84,WSW,246,1.0,2.0,99,0.00,,,0.00,0,Wunderground v.1.15,2013-02-24 05:09:00,
2013-02-24 00:15:00,29.6,29.4,29.85,WSW,247,0.0,1.0,99,0.00,,,0.00,0,Wunderground v.1.15,2013-02-24 05:15:00,
2013-02-24 00:21:00,29.5,29.3,29.85,WSW,249,0.0,0.0,99,0.00,,,0.00,0,Wunderground v.1.15,2013-02-24 05:21:00,
2013-02-24 00:26:00,29.4,29.2,29.86,WSW,250,0.0,0.0,99,0.00,,,0.00,0,Wunderground v.1.15,2013-02-24 05:26:00,
2013-02-24 00:31:00,29.3,29.1,29.86,WSW,248,0.0,0.0,99,0.00,,,0.00,0,Wunderground v.1.15,2013-02-24 05:31:00,
2013-02-24 00:36:00,29.4,29.2,29.86,WSW,249,0.0,0.0,99,0.00,,,0.00,0,Wunderground v.1.15,2013-02-24 05:36:00,
2013-02-24 00:41:00,29.5,29.3,29.87,WSW,248,0.0,0.0,99,0.00,,,0.00,0,Wunderground v.1.15,2013-02-24 05:41:00,
2013-02-24 00:46:00,29.6,29.4,29.87,WSW,248,0.0,0.0,99,0.00,,,0.00,0,Wunderground v.1.15,2013-02-24 05:46:00,
2013-02-24 00:51:00,29.8,29.6,29.87,WSW,247,0.0,1.0,99,0.00,,,0.00,0,Wunderground v.1.15,2013-02-24 05:51:00,
2013-02-24 00:57:00,29.9,29.9,29.87,WSW,247,0.0,1.0,100,0.00,,,0.00,0,Wunderground v.1.15,2013-02-24 05:57:00,
2013-02-24 01:02:00,30.0,30.0,29.88,WSW,248,0.0,0.0,100,0.00,,,0.00,0,Wunderground v.1.15,2013-02-24 06:02:00,
2013-02-24 01:07:00,30.0,30.0,29.88,WSW,250,0.0,0.0,100,0.00,,,0.00,0,Wunderground v.1.15,2013-02-24 06:07:00,
2013-02-24 01:12:00,29.9,29.7,29.88,WSW,248,0.0,1.0,99,0.00,,,0.00,0,Wunderground v.1.15,2013-02-24 06:12:00,
2013-02-24 01:18:00,30.1,30.1,29.88,WSW,248,0.0,1.0,100,0.00,,,0.00,0,Wunderground v.1.15,2013-02-24 06:18:00,
2013-02-24 01:23:00,30.2,30.2,29.88,West,271,1.0,3.0,100,0.00,,,0.00,0,Wunderground v.1.15,2013-02-24 06:23:00,
2013-02-24 01:28:00,30.2,30.2,29.88,WNW,285,3.0,4.0,100,0.00,,,0.00,0,Wunderground v.1.15,2013-02-24 06:28:00,
2013-02-24 01:33:00,30.3,30.3,29.88,WNW,288,3.0,3.0,100,0.00,,,0.00,0,Wunderground v.1.15,2013-02-24 06:33:00,
2013-02-24 01:38:00,30.3,30.3,29.88,WNW,284,1.0,3.0,100,0.00,,,0.00,0,Wunderground v.1.15,2013-02-24 06:38:00,
2013-02-24 01:43:00,30.3,30.3,29.88,WNW,284,0.0,0.0,100,0.00,,,0.00,0,Wunderground v.1.15,2013-02-24 06:43:00,
2013-02-24 01:49:00,30.2,30.2,29.88,WNW,284,0.0,2.0,100,0.00,,,0.00,0,Wunderground v.1.15,2013-02-24 06:49:00,
2013-02-24 01:54:00,30.2,30.2,29.88,WNW,284,0.0,2.0,100,0.00,,,0.00,0,Wunderground v.1.15,2013-02-24 06:54:00,
2013-02-24 01:59:00,30.2,30.2,29.87,WNW,286,1.0,2.0,100,0.00,,,0.00,0,Wunderground v.1.15,2013-02-24 06:59:00,
2013-02-24 02:05:00,30.2,30.2,29.87,WNW,285,0.0,0.0,100,0.00,,,0.00,0,Wunderground v.1.15,2013-02-24 07:05:00,
2013-02-24 02:10:00,30.2,30.2,29.87,WNW,286,0.0,0.0,100,0.00,,,0.00,0,Wunderground v.1.15,2013-02-24 07:10:00,
2013-02-24 02:16:00,30.2,30.2,29.86,WNW,285,0.0,0.0,100,0.00,,,0.00,0,Wunderground v.1.15,2013-02-24 07:16:00,
2013-02-24 02:21:00,30.1,29.9,29.86,WNW,284,0.0,0.0,99,0.00,,,0.00,0,Wunderground v.1.15,2013-02-24 07:21:00,
2013-02-24 02:26:00,30.1,29.9,29.86,WNW,284,0.0,0.0,99,0.00,,,0.00,0,Wunderground v.1.15,2013-02-24 07:26:00,
2013-02-24 02:31:00,30.0,29.8,29.86,WNW,286,0.0,2.0,99,0.00,,,0.00,0,Wunderground v.1.15,2013-02-24 07:31:00,
2013-02-24 02:36:00,29.9,29.7,29.85,WNW,285,1.0,3.0,99,0.00,,,0.00,0,Wunderground v.1.15,2013-02-24 07:36:00,
2013-02-24 02:41:00,29.9,29.7,29.85,WNW,286,1.0,1.0,99,0.00,,,0.00,0,Wunderground v.1.15,2013-02-24 07:41:00,
2013-02-24 02:46:00,29.9,29.7,29.85,WNW,284,0.0,1.0,99,0.00,,,0.00,0,Wunderground v.1.15,2013-02-24 07:46:00,
2013-02-24 02:51:00,29.7,29.5,29.85,WNW,289,1.0,3.0,99,0.00,,,0.00,0,Wunderground v.1.15,2013-02-24 07:51:00,
2013-02-24 02:56:00,29.6,29.4,29.86,West,263,2.0,4.0,99,0.00,,,0.00,0,Wunderground v.1.15,2013-02-24 07:56:00,
2013-02-24 03:02:00,29.4,29.2,29.86,West,262,2.0,3.0,99,0.00,,,0.00,0,Wunderground v.1.15,2013-02-24 08:02:00,
2013-02-24 03:07:00,29.4,29.2,29.86,West,262,2.0,4.0,99,0.00,,,0.00,0,Wunderground v.1.15,2013-02-24 08:07:00,
2013-02-24 03:12:00,29.4,29.4,29.86,West,263,2.0,2.0,100,0.00,,,0.00,0,Wunderground v.1.15,2013-02-24 08:12:00,
2013-02-24 03:18:00,29.5,29.5,29.86,West,264,1.0,2.0,100,0.00,,,0.00,0,Wunderground v.1.15,2013-02-24 08:18:00,
2013-02-24 03:23:00,29.5,29.5,29.86,WSW,244,1.0,4.0,100,0.00,,,0.00,0,Wunderground v.1.15,2013-02-24 08:23:00,
2013-02-24 03:28:00,29.4,29.4,29.86,WSW,243,1.0,4.0,100,0.00,,,0.00,0,Wunderground v.1.15,2013-02-24 08:28:00,
2013-02-24 03:33:00,29.4,29.4,29.86,WSW,242,0.0,3.0,100,0.00,,,0.00,0,Wunderground v.1.15,2013-02-24 08:33:00,
2013-02-24 03:38:00,29.3,29.3,29.86,WSW,244,1.0,3.0,100,0.00,,,0.00,0,Wunderground v.1.15,2013-02-24 08:38:00,
2013-02-24 03:43:00,29.2,29.2,29.86,WSW,242,1.0,1.0,100,0.00,,,0.00,0,Wunderground v.1.15,2013-02-24 08:43:00,
2013-02-24 03:48:00,29.1,29.1,29.86,WSW,243,0.0,1.0,100,0.00,,,0.00,0,Wunderground v.1.15,2013-02-24 08:48:00,
2013-02-24 03:53:00,28.8,28.8,29.86,WSW,244,1.0,2.0,100,0.00,,,0.00,0,Wunderground v.1.15,2013-02-24 08:53:00,
2013-02-24 03:58:00,28.8,28.8,29.86,WSW,244,1.0,3.0,100,0.00,,,0.00,0,Wunderground v.1.15,2013-02-24 08:58:00,
2013-02-24 04:04:00,28.8,28.8,29.86,WSW,245,1.0,2.0,100,0.00,,,0.00,0,Wunderground v.1.15,2013-02-24 09:04:00,
2013-02-24 04:09:00,28.8,28.8,29.86,WNW,289,2.0,3.0,100,0.00,,,0.00,0,Wunderground v.1.15,2013-02-24 09:09:00,
2013-02-24 04:14:00,28.9,28.9,29.86,WNW,288,1.0,2.0,100,0.00,,,0.00,0,Wunderground v.1.15,2013-02-24 09:14:00,
2013-02-24 04:19:00,29.1,29.1,29.86,WNW,288,0.0,2.0,100,0.00,,,0.00,0,Wunderground v.1.15,2013-02-24 09:19:00,
2013-02-24 04:24:00,29.2,29.2,29.87,WNW,288,0.0,2.0,100,0.00,,,0.00,0,Wunderground v.1.15,2013-02-24 09:24:00,
2013-02-24 04:29:00,29.4,29.4,29.86,WNW,288,1.0,2.0,100,0.00,,,0.00,0,Wunderground v.1.15,2013-02-24 09:29:00,
2013-02-24 04:35:00,29.5,29.5,29.86,South,176,1.0,4.0,100,0.00,,,0.00,0,Wunderground v.1.15,2013-02-24 09:35:00,
2013-02-24 04:40:00,29.5,29.5,29.86,East,82,1.0,3.0,100,0.00,,,0.00,0,Wunderground v.1.15,2013-02-24 09:40:00,
2013-02-24 04:45:00,29.6,29.6,29.86,East,84,1.0,3.0,100,0.00,,,0.00,0,Wunderground v.1.15,2013-02-24 09:45:00,
2013-02-24 04:50:00,29.5,29.5,29.87,North,9,1.0,2.0,100,0.00,,,0.00,0,Wunderground v.1.15,2013-02-24 09:50:00,
2013-02-24 04:55:00,29.5,29.5,29.87,North,5,1.0,2.0,100,0.00,,,0.00,0,Wunderground v.1.15,2013-02-24 09:55:00,
2013-02-24 05:00:00,29.5,29.5,29.87,North,9,0.0,0.0,100,0.00,,,0.00,0,Wunderground v.1.15,2013-02-24 10:00:00,
2013-02-24 05:06:00,29.4,29.4,29.87,North,9,0.0,0.0,100,0.00,,,0.00,0,Wunderground v.1.15,2013-02-24 10:06:00,
2013-02-24 05:11:00,29.3,29.3,29.87,North,9,0.0,0.0,100,0.00,,,0.00,0,Wunderground v.1.15,2013-02-24 10:11:00,
2013-02-24 05:16:00,29.2,29.2,29.87,North,9,0.0,2.0,100,0.00,,,0.00,0,Wunderground v.1.15,2013-02-24 10:16:00,
2013-02-24 05:21:00,29.2,29.2,29.87,North,9,0.0,0.0,100,0.00,,,0.00,0,Wunderground v.1.15,2013-02-24 10:21:00,
2013-02-24 05:26:00,29.1,29.1,29.87,North,10,0.0,0.0,100,0.00,,,0.00,0,Wunderground v.1.15,2013-02-24 10:26:00,
2013-02-24 05:31:00,29.1,29.1,29.87,North,9,0.0,0.0,100,0.00,,,0.00,0,Wunderground v.1.15,2013-02-24 10:31:00,
2013-02-24 05:36:00,28.9,28.9,29.87,NNE,16,0.0,2.0,100,0.00,,,0.00,0,Wunderground v.1.15,2013-02-24 10:36:00,
2013-02-24 05:42:00,28.8,28.8,29.88,WNW,296,0.0,4.0,100,0.00,,,0.00,0,Wunderground v.1.15,2013-02-24 10:42:00,
2013-02-24 05:48:00,28.9,28.9,29.88,NNW,329,1.0,4.0,100,0.00,,,0.00,0,Wunderground v.1.15,2013-02-24 10:48:00,
2013-02-24 05:53:00,29.0,29.0,29.88,NNW,331,1.0,4.0,100,0.00,,,0.00,0,Wunderground v.1.15,2013-02-24 10:53:00,
2013-02-24 05:58:00,29.8,29.8,29.87,West,278,3.0,10.0,100,0.00,,,0.00,0,Wunderground v.1.15,2013-02-24 10:58:00,
2013-02-24 06:04:00,30.7,30.2,29.88,WNW,286,4.0,4.0,98,0.00,,,0.00,0,Wunderground v.1.15,2013-02-24 11:04:00,
2013-02-24 06:09:00,31.1,29.8,29.88,SSW,209,3.0,6.0,95,0.00,,,0.00,0,Wunderground v.1.15,2013-02-24 11:09:00,
2013-02-24 06:14:00,31.5,29.7,29.88,NNW,327,4.0,5.0,93,0.00,,,0.00,0,Wunderground v.1.15,2013-02-24 11:14:00,
2013-02-24 06:19:00,32.0,29.4,29.88,South,171,3.0,7.0,90,0.00,,,0.00,0,Wunderground v.1.15,2013-02-24 11:19:00,
2013-02-24 06:24:00,32.3,29.4,29.88,NW,323,3.0,10.0,89,0.00,,,0.00,0,Wunderground v.1.15,2013-02-24 11:24:00,
2013-02-24 06:30:00,33.2,29.5,29.88,West,273,4.0,7.0,86,0.00,,,0.00,0,Wunderground v.1.15,2013-02-24 11:30:00,
2013-02-24 06:35:00,33.5,29.5,29.87,WSW,254,5.0,9.0,85,0.00,,,0.00,0,Wunderground v.1.15,2013-02-24 11:35:00,
2013-02-24 06:40:00,33.7,29.1,29.88,WNW,300,6.0,9.0,83,0.00,,,0.00,0,Wunderground v.1.15,2013-02-24 11:40:00,
2013-02-24 06:45:00,33.9,29.0,29.88,West,279,7.0,9.0,82,0.00,,,0.00,0,Wunderground v.1.15,2013-02-24 11:45:00,
2013-02-24 06:50:00,33.9,29.0,29.88,WNW,286,6.0,6.0,82,0.00,,,0.00,0,Wunderground v.1.15,2013-02-24 11:50:00,
2013-02-24 06:55:00,33.6,28.7,29.88,WNW,289,2.0,6.0,82,0.00,,,0.00,0,Wunderground v.1.15,2013-02-24 11:55:00,
2013-02-24 07:00:00,33.2,28.3,29.89,SW,215,2.0,5.0,82,0.00,,,0.00,5,Wunderground v.1.15,2013-02-24 12:00:00,
2013-02-24 07:06:00,33.0,28.1,29.89,North,360,4.0,8.0,82,0.00,,,0.00,7,Wunderground v.1.15,2013-02-24 12:06:00,
2013-02-24 07:12:00,32.6,27.4,29.89,West,275,4.0,10.0,81,0.00,,,0.00,11,Wunderground v.1.15,2013-02-24 12:12:00,
2013-02-24 07:17:00,32.7,27.5,29.89,WSW,244,6.0,11.0,81,0.00,,,0.00,12,Wunderground v.1.15,2013-02-24 12:17:00,
2013-02-24 07:22:00,32.8,27.3,29.89,West,269,8.0,26.0,80,0.00,,,0.00,19,Wunderground v.1.15,2013-02-24 12:22:00,
2013-02-24 07:27:00,32.7,27.2,29.90,SE,137,9.0,26.0,80,0.00,,,0.00,19,Wunderground v.1.15,2013-02-24 12:27:00,
2013-02-24 07:32:00,32.7,26.9,29.91,WNW,286,8.0,10.0,79,0.00,,,0.00,25,Wunderground v.1.15,2013-02-24 12:32:00,
2013-02-24 07:37:00,32.7,26.9,29.91,West,267,6.0,10.0,79,0.00,,,0.00,26,Wunderground v.1.15,2013-02-24 12:37:00,
2013-02-24 07:42:00,32.8,27.0,29.91,North,360,5.0,6.0,79,0.00,,,0.00,33,Wunderground v.1.15,2013-02-24 12:42:00,
2013-02-24 07:47:00,32.8,27.0,29.91,North,350,4.0,6.0,79,0.00,,,0.00,93,Wunderground v.1.15,2013-02-24 12:47:00,
2013-02-24 07:52:00,32.8,27.6,29.91,NW,323,3.0,5.0,81,0.00,,,0.00,104,Wunderground v.1.15,2013-02-24 12:52:00,
2013-02-24 07:57:00,32.9,27.4,29.91,West,271,4.0,12.0,80,0.00,,,0.00,107,Wunderground v.1.15,2013-02-24 12:57:00,
2013-02-24 08:03:00,33.1,27.3,29.91,North,360,5.0,7.0,79,0.00,,,0.00,83,Wunderground v.1.15,2013-02-24 13:03:00,
2013-02-24 08:08:00,33.3,27.5,29.92,SW,229,5.0,9.0,79,0.00,,,0.00,62,Wunderground v.1.15,2013-02-24 13:08:00,
2013-02-24 08:13:00,33.3,26.9,29.92,NE,44,5.0,5.0,77,0.00,,,0.00,53,Wunderground v.1.15,2013-02-24 13:13:00,
2013-02-24 08:18:00,33.1,27.0,29.92,NNW,329,3.0,5.0,78,0.00,,,0.00,69,Wunderground v.1.15,2013-02-24 13:18:00,
2013-02-24 08:23:00,33.2,27.4,29.93,South,186,3.0,3.0,79,0.00,,,0.00,72,Wunderground v.1.15,2013-02-24 13:23:00,
2013-02-24 08:28:00,33.2,27.4,29.92,NNE,30,2.0,4.0,79,0.00,,,0.00,88,Wunderground v.1.15,2013-02-24 13:28:00,
2013-02-24 08:33:00,33.2,27.1,29.93,North,360,3.0,5.0,78,0.00,,,0.00,72,Wunderground v.1.15,2013-02-24 13:33:00,
2013-02-24 08:38:00,33.2,27.1,29.92,West,281,4.0,7.0,78,0.00,,,0.00,76,Wunderground v.1.15,2013-02-24 13:38:00,
2013-02-24 08:43:00,33.3,27.2,29.92,North,360,3.0,8.0,78,0.00,,,0.00,95,Wunderground v.1.15,2013-02-24 13:43:00,
2013-02-24 08:49:00,33.4,27.3,29.92,WNW,294,3.0,8.0,78,0.00,,,0.00,114,Wunderground v.1.15,2013-02-24 13:49:00,
2013-02-24 08:54:00,33.5,27.4,29.93,North,360,2.0,8.0,78,0.00,,,0.00,125,Wunderground v.1.15,2013-02-24 13:54:00,
2013-02-24 09:00:00,33.7,27.3,29.93,WNW,299,5.0,5.0,77,0.00,,,0.00,111,Wunderground v.1.15,2013-02-24 14:00:00,
2013-02-24 09:06:00,33.7,27.3,29.94,North,360,6.0,11.0,77,0.00,,,0.00,127,Wunderground v.1.15,2013-02-24 14:06:00,
2013-02-24 09:11:00,33.7,27.6,29.94,NNW,327,4.0,9.0,78,0.00,,,0.00,88,Wunderground v.1.15,2013-02-24 14:11:00,
2013-02-24 09:16:00,33.7,26.9,29.95,NW,323,3.0,9.0,76,0.00,,,0.00,95,Wunderground v.1.15,2013-02-24 14:16:00,
2013-02-24 09:22:00,33.5,27.4,29.94,SE,131,4.0,5.0,78,0.00,,,0.00,104,Wunderground v.1.15,2013-02-24 14:22:00,
2013-02-24 09:27:00,33.5,27.4,29.94,SE,137,4.0,6.0,78,0.00,,,0.00,116,Wunderground v.1.15,2013-02-24 14:27:00,
2013-02-24 09:32:00,33.5,26.7,29.94,West,279,4.0,15.0,76,0.00,,,0.00,120,Wunderground v.1.15,2013-02-24 14:32:00,
2013-02-24 09:37:00,33.5,26.4,29.94,North,360,7.0,15.0,75,0.00,,,0.00,153,Wunderground v.1.15,2013-02-24 14:37:00,
2013-02-24 09:43:00,33.5,26.4,29.94,North,360,8.0,20.0,75,0.00,,,0.00,130,Wunderground v.1.15,2013-02-24 14:43:00,
2013-02-24 09:48:00,33.6,26.5,29.94,North,360,7.0,20.0,75,0.00,,,0.00,134,Wunderground v.1.15,2013-02-24 14:48:00,
2013-02-24 09:53:00,33.6,27.2,29.94,SW,227,6.0,14.0,77,0.00,,,0.00,149,Wunderground v.1.15,2013-02-24 14:53:00,
2013-02-24 09:58:00,33.6,26.8,29.94,West,263,8.0,15.0,76,0.00,,,0.00,121,Wunderground v.1.15,2013-02-24 14:58:00,
2013-02-24 10:04:00,33.6,26.8,29.95,WSW,239,8.0,17.0,76,0.00,,,0.00,163,Wunderground v.1.15,2013-02-24 15:04:00,
2013-02-24 10:10:00,33.7,26.9,29.95,SSW,198,8.0,8.0,76,0.00,,,0.00,234,Wunderground v.1.15,2013-02-24 15:10:00,
2013-02-24 10:15:00,33.9,27.1,29.95,North,360,7.0,9.0,76,0.00,,,0.00,176,Wunderground v.1.15,2013-02-24 15:15:00,
2013-02-24 10:20:00,34.0,26.6,29.95,West,269,5.0,5.0,74,0.00,,,0.00,262,Wunderground v.1.15,2013-02-24 15:20:00,
2013-02-24 10:25:00,34.1,26.3,29.95,NNW,346,3.0,5.0,73,0.00,,,0.00,179,Wunderground v.1.15,2013-02-24 15:25:00,
2013-02-24 10:30:00,34.3,27.5,29.95,SSW,213,2.0,5.0,76,0.00,,,0.00,265,Wunderground v.1.15,2013-02-24 15:30:00,
2013-02-24 10:35:00,34.8,27.4,29.95,North,360,4.0,12.0,74,0.00,,,0.00,200,Wunderground v.1.15,2013-02-24 15:35:00,
2013-02-24 10:40:00,34.9,27.1,29.95,SW,229,4.0,4.0,73,0.00,,,0.00,220,Wunderground v.1.15,2013-02-24 15:40:00,
2013-02-24 10:45:00,35.1,27.3,29.94,WSW,245,4.0,7.0,73,0.00,,,0.00,178,Wunderground v.1.15,2013-02-24 15:45:00,
2013-02-24 10:50:00,35.4,27.6,29.94,West,267,4.0,12.0,73,0.00,,,0.00,264,Wunderground v.1.15,2013-02-24 15:50:00,
2013-02-24 10:56:00,35.5,26.7,29.94,West,266,7.0,17.0,70,0.00,,,0.00,144,Wunderground v.1.15,2013-02-24 15:56:00,
2013-02-24 11:01:00,35.4,26.9,29.94,SW,223,12.0,12.0,71,0.00,,,0.00,693,Wunderground v.1.15,2013-02-24 16:01:00,
2013-02-24 11:07:00,36.0,27.2,29.93,North,360,10.0,12.0,70,0.00,,,0.00,707,Wunderground v.1.15,2013-02-24 16:07:00,
2013-02-24 11:12:00,36.5,28.0,29.94,SW,234,8.0,13.0,71,0.00,,,0.00,144,Wunderground v.1.15,2013-02-24 16:12:00,
2013-02-24 11:18:00,36.9,27.7,29.94,South,186,7.0,13.0,69,0.00,,,0.00,786,Wunderground v.1.15,2013-02-24 16:18:00,
2013-02-24 11:23:00,37.0,27.8,29.94,North,360,5.0,8.0,69,0.00,,,0.00,221,Wunderground v.1.15,2013-02-24 16:23:00,
2013-02-24 11:28:00,37.2,28.3,29.94,WSW,238,7.0,15.0,70,0.00,,,0.00,232,Wunderground v.1.15,2013-02-24 16:28:00,
2013-02-24 11:33:00,37.2,27.2,29.95,WSW,242,10.0,21.0,67,0.00,,,0.00,329,Wunderground v.1.15,2013-02-24 16:33:00,
2013-02-24 11:38:00,37.4,27.8,29.94,WSW,256,11.0,21.0,68,0.00,,,0.00,223,Wunderground v.1.15,2013-02-24 16:38:00,
2013-02-24 11:43:00,37.3,27.7,29.95,SSE,154,9.0,13.0,68,0.00,,,0.00,244,Wunderground v.1.15,2013-02-24 16:43:00,
2013-02-24 11:49:00,37.0,27.4,29.95,NW,313,7.0,17.0,68,0.00,,,0.00,223,Wunderground v.1.15,2013-02-24 16:49:00,
2013-02-24 11:54:00,36.7,27.1,29.94,WNW,289,7.0,9.0,68,0.00,,,0.00,301,Wunderground v.1.15,2013-02-24 16:54:00,
2013-02-24 11:59:00,36.9,27.0,29.94,WSW,239,9.0,15.0,67,0.00,,,0.00,756,Wunderground v.1.15,2013-02-24 16:59:00,
2013-02-24 12:05:00,37.9,28.3,29.94,SSE,167,8.0,10.0,68,0.00,,,0.00,831,Wunderground v.1.15,2013-02-24 17:05:00,
2013-02-24 12:10:00,37.9,27.2,29.94,West,281,7.0,7.0,65,0.00,,,0.00,269,Wunderground v.1.15,2013-02-24 17:10:00,
2013-02-24 12:15:00,37.5,27.5,29.94,South,177,8.0,21.0,67,0.00,,,0.00,265,Wunderground v.1.15,2013-02-24 17:15:00,
2013-02-24 12:20:00,37.7,27.4,29.94,North,360,7.0,7.0,66,0.00,,,0.00,348,Wunderground v.1.15,2013-02-24 17:20:00,
2013-02-24 12:26:00,37.5,26.8,29.94,North,360,6.0,10.0,65,0.00,,,0.00,278,Wunderground v.1.15,2013-02-24 17:26:00,
2013-02-24 12:31:00,37.4,27.1,29.94,North,355,5.0,11.0,66,0.00,,,0.00,232,Wunderground v.1.15,2013-02-24 17:31:00,
2013-02-24 12:36:00,37.4,27.4,29.94,North,9,6.0,11.0,67,0.00,,,0.00,302,Wunderground v.1.15,2013-02-24 17:36:00,
2013-02-24 12:41:00,37.3,27.0,29.94,NNW,329,6.0,8.0,66,0.00,,,0.00,250,Wunderground v.1.15,2013-02-24 17:41:00,
2013-02-24 12:46:00,36.8,26.5,29.94,West,275,7.0,18.0,66,0.00,,,0.00,163,Wunderground v.1.15,2013-02-24 17:46:00,
2013-02-24 12:51:00,36.6,26.7,29.94,WSW,250,10.0,10.0,67,0.00,,,0.00,179,Wunderground v.1.15,2013-02-24 17:51:00,
2013-02-24 12:56:00,36.8,26.1,29.94,North,360,11.0,19.0,65,0.00,,,0.00,141,Wunderground v.1.15,2013-02-24 17:56:00,
2013-02-24 13:02:00,37.1,26.8,29.93,NW,317,11.0,15.0,66,0.00,,,0.00,761,Wunderground v.1.15,2013-02-24 18:02:00,
2013-02-24 13:07:00,37.3,26.6,29.93,North,360,10.0,17.0,65,0.00,,,0.00,754,Wunderground v.1.15,2013-02-24 18:07:00,
2013-02-24 13:12:00,37.6,26.9,29.93,SSW,211,9.0,11.0,65,0.00,,,0.00,707,Wunderground v.1.15,2013-02-24 18:12:00,
2013-02-24 13:18:00,38.5,28.1,29.94,NW,304,8.0,13.0,66,0.00,,,0.00,698,Wunderground v.1.15,2013-02-24 18:18:00,
2013-02-24 13:23:00,38.7,27.2,29.93,WNW,292,12.0,16.0,63,0.00,,,0.00,707,Wunderground v.1.15,2013-02-24 18:23:00,
2013-02-24 13:29:00,38.6,27.1,29.93,WSW,254,14.0,25.0,63,0.00,,,0.00,687,Wunderground v.1.15,2013-02-24 18:29:00,
2013-02-24 13:34:00,39.0,26.7,29.92,West,277,14.0,17.0,61,0.00,,,0.00,705,Wunderground v.1.15,2013-02-24 18:34:00,
2013-02-24 13:39:00,39.2,26.9,29.92,WNW,288,14.0,21.0,61,0.00,,,0.00,650,Wunderground v.1.15,2013-02-24 18:39:00,
2013-02-24 13:44:00,39.4,27.5,29.93,NW,323,13.0,17.0,62,0.00,,,0.00,705,Wunderground v.1.15,2013-02-24 18:44:00,
2013-02-24 13:50:00,38.6,27.1,29.93,NNW,336,12.0,18.0,63,0.00,,,0.00,712,Wunderground v.1.15,2013-02-24 18:50:00,
2013-02-24 13:55:00,38.2,26.3,29.94,WNW,290,12.0,24.0,62,0.00,,,0.00,670,Wunderground v.1.15,2013-02-24 18:55:00,
2013-02-24 14:00:00,37.7,27.0,29.94,North,360,14.0,16.0,65,0.00,,,0.00,654,Wunderground v.1.15,2013-02-24 19:00:00,
2013-02-24 14:06:00,37.5,26.0,29.94,WNW,302,13.0,18.0,63,0.00,,,0.00,642,Wunderground v.1.15,2013-02-24 19:06:00,
2013-02-24 14:12:00,37.0,26.3,29.94,North,360,13.0,27.0,65,0.00,,,0.00,647,Wunderground v.1.15,2013-02-24 19:12:00,
2013-02-24 14:17:00,36.5,25.8,29.95,West,281,15.0,27.0,65,0.00,,,0.00,638,Wunderground v.1.15,2013-02-24 19:17:00,
2013-02-24 14:22:00,36.4,26.8,29.95,WNW,300,17.0,20.0,68,0.00,,,0.00,675,Wunderground v.1.15,2013-02-24 19:22:00,
2013-02-24 14:28:00,36.5,26.9,29.95,NNW,348,13.0,20.0,68,0.00,,,0.00,640,Wunderground v.1.15,2013-02-24 19:28:00,
2013-02-24 14:33:00,36.6,26.3,29.96,West,273,9.0,12.0,66,0.00,,,0.00,605,Wunderground v.1.15,2013-02-24 19:33:00,
2013-02-24 14:38:00,36.6,26.7,29.96,North,360,6.0,12.0,67,0.00,,,0.00,352,Wunderground v.1.15,2013-02-24 19:38:00,
2013-02-24 14:44:00,36.8,26.9,29.97,WNW,288,7.0,14.0,67,0.00,,,0.00,584,Wunderground v.1.15,2013-02-24 19:44:00,
2013-02-24 14:49:00,36.0,25.7,29.97,NW,304,12.0,18.0,66,0.00,,,0.00,584,Wunderground v.1.15,2013-02-24 19:49:00,
2013-02-24 14:54:00,35.8,26.6,29.97,NW,310,10.0,14.0,69,0.00,,,0.00,663,Wunderground v.1.15,2013-02-24 19:54:00,
2013-02-24 15:00:00,35.3,25.4,29.98,NW,316,10.0,10.0,67,0.00,,,0.00,566,Wunderground v.1.15,2013-02-24 20:00:00,
2013-02-24 15:06:00,35.0,25.5,29.98,NW,326,11.0,12.0,68,0.00,,,0.00,642,Wunderground v.1.15,2013-02-24 20:06:00,
2013-02-24 15:11:00,34.9,25.4,29.98,NW,306,9.0,14.0,68,0.00,,,0.00,642,Wunderground v.1.15,2013-02-24 20:11:00,
2013-02-24 15:16:00,34.6,25.5,29.98,North,351,9.0,14.0,69,0.00,,,0.00,227,Wunderground v.1.15,2013-02-24 20:16:00,
2013-02-24 15:22:00,33.9,24.8,29.99,West,263,11.0,24.0,69,0.00,,,0.00,199,Wunderground v.1.15,2013-02-24 20:22:00,
2013-02-24 15:27:00,33.5,24.4,29.99,NW,312,12.0,24.0,69,0.00,,,0.00,178,Wunderground v.1.15,2013-02-24 20:27:00,
2013-02-24 15:32:00,33.1,24.7,29.99,North,360,11.0,12.0,71,0.00,,,0.00,137,Wunderground v.1.15,2013-02-24 20:32:00,
2013-02-24 15:38:00,32.7,24.3,30.00,WNW,298,9.0,12.0,71,0.00,,,0.00,125,Wunderground v.1.15,2013-02-24 20:38:00,
2013-02-24 15:43:00,32.5,24.5,30.00,North,355,9.0,17.0,72,0.00,,,0.00,135,Wunderground v.1.15,2013-02-24 20:43:00,
2013-02-24 15:49:00,32.4,24.4,30.01,North,360,9.0,17.0,72,0.00,,,0.00,137,Wunderground v.1.15,2013-02-24 20:49:00,
2013-02-24 15:54:00,32.4,24.4,30.01,North,355,6.0,9.0,72,0.00,,,0.00,120,Wunderground v.1.15,2013-02-24 20:54:00,
2013-02-24 15:59:00,32.2,24.2,30.01,WSW,253,7.0,14.0,72,0.00,,,0.00,114,Wunderground v.1.15,2013-02-24 20:59:00,
2013-02-24 16:05:00,31.9,24.2,30.02,North,360,9.0,9.0,73,0.00,,,0.00,91,Wunderground v.1.15,2013-02-24 21:05:00,
2013-02-24 16:10:00,31.5,23.8,30.02,WNW,298,9.0,9.0,73,0.00,,,0.00,88,Wunderground v.1.15,2013-02-24 21:10:00,
2013-02-24 16:16:00,31.4,24.1,30.02,ESE,109,8.0,11.0,74,0.00,,,0.00,90,Wunderground v.1.15,2013-02-24 21:16:00,
2013-02-24 16:21:00,31.4,23.7,30.02,WNW,283,4.0,9.0,73,0.00,,,0.00,53,Wunderground v.1.15,2013-02-24 21:21:00,
2013-02-24 16:26:00,31.4,23.7,30.03,North,360,4.0,11.0,73,0.00,,,0.00,47,Wunderground v.1.15,2013-02-24 21:26:00,
2013-02-24 16:32:00,31.1,23.5,30.03,NW,319,8.0,19.0,73,0.00,,,0.00,32,Wunderground v.1.15,2013-02-24 21:32:00,
2013-02-24 16:37:00,30.8,23.5,30.03,West,279,11.0,19.0,74,0.00,,,0.00,30,Wunderground v.1.15,2013-02-24 21:37:00,
2013-02-24 16:42:00,30.6,23.6,30.03,NW,322,10.0,11.0,75,0.00,,,0.00,23,Wunderground v.1.15,2013-02-24 21:42:00,
2013-02-24 16:48:00,30.5,23.8,30.03,NW,311,7.0,13.0,76,0.00,,,0.00,33,Wunderground v.1.15,2013-02-24 21:48:00,
2013-02-24 16:53:00,30.4,23.4,30.04,WSW,238,8.0,8.0,75,0.00,,,0.00,62,Wunderground v.1.15,2013-02-24 21:53:00,
2013-02-24 16:59:00,30.4,23.4,30.04,SW,228,6.0,8.0,75,0.00,,,0.00,44,Wunderground v.1.15,2013-02-24 21:59:00,
2013-02-24 17:05:00,30.5,23.2,30.04,NW,310,8.0,16.0,74,0.00,,,0.00,40,Wunderground v.1.15,2013-02-24 22:05:00,
2013-02-24 17:10:00,30.4,23.1,30.05,North,360,10.0,10.0,74,0.00,,,0.00,30,Wunderground v.1.15,2013-02-24 22:10:00,
2013-02-24 17:15:00,30.4,23.4,30.05,NNE,19,7.0,10.0,75,0.00,,,0.00,25,Wunderground v.1.15,2013-02-24 22:15:00,
2013-02-24 17:20:00,30.3,23.3,30.05,WNW,300,5.0,5.0,75,0.00,,,0.00,30,Wunderground v.1.15,2013-02-24 22:20:00,
2013-02-24 17:26:00,30.3,23.3,30.05,WNW,285,6.0,15.0,75,0.00,,,0.00,33,Wunderground v.1.15,2013-02-24 22:26:00,
2013-02-24 17:31:00,30.3,23.0,30.06,WSW,245,8.0,11.0,74,0.00,,,0.00,30,Wunderground v.1.15,2013-02-24 22:31:00,
2013-02-24 17:36:00,30.3,23.3,30.06,NNW,337,7.0,12.0,75,0.00,,,0.00,25,Wunderground v.1.15,2013-02-24 22:36:00,
2013-02-24 17:42:00,30.2,22.9,30.06,East,82,4.0,5.0,74,0.00,,,0.00,23,Wunderground v.1.15,2013-02-24 22:42:00,
2013-02-24 17:47:00,30.1,22.8,30.07,NW,308,4.0,8.0,74,0.00,,,0.00,12,Wunderground v.1.15,2013-02-24 22:47:00,
2013-02-24 17:52:00,30.1,22.8,30.07,NNW,339,5.0,7.0,74,0.00,,,0.00,7,Wunderground v.1.15,2013-02-24 22:52:00,
2013-02-24 17:58:00,30.1,22.8,30.07,ESE,116,6.0,10.0,74,0.00,,,0.00,5,Wunderground v.1.15,2013-02-24 22:58:00,
2013-02-24 18:04:00,29.9,23.3,30.08,NNW,348,5.0,8.0,76,0.00,,,0.00,0,Wunderground v.1.15,2013-02-24 23:04:00,
2013-02-24 18:09:00,29.7,22.7,30.08,NNE,26,6.0,8.0,75,0.00,,,0.00,0,Wunderground v.1.15,2013-02-24 23:09:00,
2013-02-24 18:14:00,29.6,23.0,30.08,NW,324,5.0,9.0,76,0.00,,,0.00,0,Wunderground v.1.15,2013-02-24 23:14:00,
2013-02-24 18:20:00,29.5,22.6,30.08,West,279,5.0,10.0,75,0.00,,,0.00,0,Wunderground v.1.15,2013-02-24 23:20:00,
2013-02-24 18:25:00,29.4,22.1,30.08,WNW,294,7.0,10.0,74,0.00,,,0.00,0,Wunderground v.1.15,2013-02-24 23:25:00,
2013-02-24 18:30:00,29.4,22.1,30.09,WNW,299,5.0,5.0,74,0.00,,,0.00,0,Wunderground v.1.15,2013-02-24 23:30:00,
2013-02-24 18:36:00,29.3,23.6,30.09,North,360,4.0,7.0,79,0.00,,,0.00,0,Wunderground v.1.15,2013-02-24 23:36:00,
2013-02-24 18:41:00,28.8,23.4,30.10,NNW,340,5.0,8.0,80,0.00,,,0.00,0,Wunderground v.1.15,2013-02-24 23:41:00,
2013-02-24 18:46:00,28.4,23.3,30.10,North,355,6.0,8.0,81,0.00,,,0.00,0,Wunderground v.1.15,2013-02-24 23:46:00,
2013-02-24 18:52:00,28.2,23.7,30.10,NE,41,5.0,5.0,83,0.00,,,0.00,0,Wunderground v.1.15,2013-02-24 23:52:00,
2013-02-24 18:57:00,28.1,23.3,30.11,NE,37,3.0,9.0,82,0.00,,,0.00,0,Wunderground v.1.15,2013-02-24 23:57:00,
2013-02-24 19:03:00,28.0,22.6,30.11,West,265,3.0,4.0,80,0.00,,,0.00,0,Wunderground v.1.15,2013-02-25 00:03:00,
2013-02-24 19:08:00,28.0,22.9,30.12,WSW,257,4.0,5.0,81,0.00,,,0.00,0,Wunderground v.1.15,2013-02-25 00:08:00,
2013-02-24 19:13:00,28.1,22.1,30.12,SSW,207,4.0,6.0,78,0.00,,,0.00,0,Wunderground v.1.15,2013-02-25 00:13:00,
2013-02-24 19:19:00,28.1,21.8,30.12,WSW,246,6.0,10.0,77,0.00,,,0.00,0,Wunderground v.1.15,2013-02-25 00:19:00,
2013-02-24 19:24:00,28.2,21.6,30.12,WSW,257,5.0,6.0,76,0.00,,,0.00,0,Wunderground v.1.15,2013-02-25 00:24:00,
2013-02-24 19:30:00,28.2,21.3,30.13,NNW,348,5.0,5.0,75,0.00,,,0.00,0,Wunderground v.1.15,2013-02-25 00:30:00,
2013-02-24 19:35:00,28.2,20.7,30.13,NE,44,5.0,6.0,73,0.00,,,0.00,0,Wunderground v.1.15,2013-02-25 00:35:00,
2013-02-24 19:40:00,28.1,20.6,30.13,ENE,73,3.0,3.0,73,0.00,,,0.00,0,Wunderground v.1.15,2013-02-25 00:40:00,
2013-02-24 19:46:00,28.1,20.2,30.14,SW,227,3.0,8.0,72,0.00,,,0.00,0,Wunderground v.1.15,2013-02-25 00:46:00,
2013-02-24 19:51:00,28.1,19.2,30.13,WNW,289,5.0,5.0,69,0.00,,,0.00,0,Wunderground v.1.15,2013-02-25 00:51:00,
2013-02-24 19:56:00,28.1,19.2,30.13,NW,324,4.0,5.0,69,0.00,,,0.00,0,Wunderground v.1.15,2013-02-25 00:56:00,
2013-02-24 20:02:00,28.2,20.0,30.14,SE,136,1.0,3.0,71,0.00,,,0.00,0,Wunderground v.1.15,2013-02-25 01:02:00,
2013-02-24 20:08:00,28.3,19.8,30.13,SW,214,2.0,8.0,70,0.00,,,0.00,0,Wunderground v.1.15,2013-02-25 01:08:00,
2013-02-24 20:14:00,28.3,19.4,30.14,South,186,4.0,4.0,69,0.00,,,0.00,0,Wunderground v.1.15,2013-02-25 01:14:00,
2013-02-24 20:19:00,28.3,19.8,30.14,WNW,297,3.0,4.0,70,0.00,,,0.00,0,Wunderground v.1.15,2013-02-25 01:19:00,
2013-02-24 20:24:00,28.3,20.1,30.14,WNW,292,3.0,9.0,71,0.00,,,0.00,0,Wunderground v.1.15,2013-02-25 01:24:00,
2013-02-24 20:29:00,28.3,19.8,30.14,NW,319,3.0,9.0,70,0.00,,,0.00,0,Wunderground v.1.15,2013-02-25 01:29:00,
2013-02-24 20:35:00,28.2,19.7,30.15,WNW,294,2.0,4.0,70,0.00,,,0.00,0,Wunderground v.1.15,2013-02-25 01:35:00,
2013-02-24 20:40:00,28.1,19.2,30.15,NNW,340,2.0,2.0,69,0.00,,,0.00,0,Wunderground v.1.15,2013-02-25 01:40:00,
2013-02-24 20:46:00,28.1,19.6,30.15,SSW,198,1.0,4.0,70,0.00,,,0.00,0,Wunderground v.1.15,2013-02-25 01:46:00,
2013-02-24 20:51:00,27.9,19.7,30.15,SW,224,2.0,2.0,71,0.00,,,0.00,0,Wunderground v.1.15,2013-02-25 01:51:00,
2013-02-24 20:56:00,27.8,19.9,30.15,SSW,192,3.0,5.0,72,0.00,,,0.00,0,Wunderground v.1.15,2013-02-25 01:56:00,
2013-02-24 21:02:00,27.6,19.8,30.15,South,171,3.0,5.0,72,0.00,,,0.00,0,Wunderground v.1.15,2013-02-25 02:02:00,
2013-02-24 21:07:00,27.6,19.8,30.14,WNW,293,3.0,5.0,72,0.00,,,0.00,0,Wunderground v.1.15,2013-02-25 02:07:00,
2013-02-24 21:13:00,27.7,19.8,30.15,North,355,4.0,5.0,72,0.00,,,0.00,0,Wunderground v.1.15,2013-02-25 02:13:00,
2013-02-24 21:18:00,27.7,19.5,30.14,North,360,3.0,9.0,71,0.00,,,0.00,0,Wunderground v.1.15,2013-02-25 02:18:00,
2013-02-24 21:23:00,27.8,19.6,30.15,NW,313,4.0,11.0,71,0.00,,,0.00,0,Wunderground v.1.15,2013-02-25 02:23:00,
2013-02-24 21:29:00,27.8,19.9,30.15,WNW,303,3.0,11.0,72,0.00,,,0.00,0,Wunderground v.1.15,2013-02-25 02:29:00,
2013-02-24 21:34:00,27.8,20.3,30.15,NW,305,1.0,3.0,73,0.00,,,0.00,0,Wunderground v.1.15,2013-02-25 02:34:00,
2013-02-24 21:40:00,27.7,20.5,30.15,ENE,77,1.0,2.0,74,0.00,,,0.00,0,Wunderground v.1.15,2013-02-25 02:40:00,
2013-02-24 21:45:00,27.7,20.8,30.15,South,188,1.0,4.0,75,0.00,,,0.00,0,Wunderground v.1.15,2013-02-25 02:45:00,
2013-02-24 21:50:00,27.7,20.5,30.15,NW,324,2.0,4.0,74,0.00,,,0.00,0,Wunderground v.1.15,2013-02-25 02:50:00,
2013-02-24 21:56:00,27.7,19.8,30.15,West,273,3.0,5.0,72,0.00,,,0.00,0,Wunderground v.1.15,2013-02-25 02:56:00,
2013-02-24 22:02:00,27.5,20.0,30.14,West,261,2.0,5.0,73,0.00,,,0.00,0,Wunderground v.1.15,2013-02-25 03:02:00,
2013-02-24 22:07:00,27.1,19.9,30.14,SSW,202,2.0,5.0,74,0.00,,,0.00,0,Wunderground v.1.15,2013-02-25 03:07:00,
2013-02-24 22:12:00,26.9,20.0,30.14,WNW,284,2.0,3.0,75,0.00,,,0.00,0,Wunderground v.1.15,2013-02-25 03:12:00,
2013-02-24 22:18:00,26.6,20.1,30.14,WNW,286,2.0,4.0,76,0.00,,,0.00,0,Wunderground v.1.15,2013-02-25 03:18:00,
2013-02-24 22:23:00,26.4,20.2,30.14,WNW,288,2.0,2.0,77,0.00,,,0.00,0,Wunderground v.1.15,2013-02-25 03:23:00,
2013-02-24 22:28:00,26.1,20.2,30.15,WNW,286,0.0,2.0,78,0.00,,,0.00,0,Wunderground v.1.15,2013-02-25 03:28:00,
2013-02-24 22:34:00,25.9,20.0,30.15,SSE,152,1.0,3.0,78,0.00,,,0.00,0,Wunderground v.1.15,2013-02-25 03:34:00,
2013-02-24 22:39:00,25.5,19.9,30.15,SSE,152,1.0,3.0,79,0.00,,,0.00,0,Wunderground v.1.15,2013-02-25 03:39:00,
2013-02-24 22:44:00,25.2,19.9,30.15,SSE,151,0.0,1.0,80,0.00,,,0.00,0,Wunderground v.1.15,2013-02-25 03:44:00,
2013-02-24 22:50:00,25.0,20.0,30.15,NW,322,1.0,1.0,81,0.00,,,0.00,0,Wunderground v.1.15,2013-02-25 03:50:00,
2013-02-24 22:55:00,24.8,20.4,30.15,NW,321,1.0,1.0,83,0.00,,,0.00,0,Wunderground v.1.15,2013-02-25 03:55:00,
2013-02-24 23:00:00,24.7,20.3,30.15,NW,319,0.0,0.0,83,0.00,,,0.00,0,Wunderground v.1.15,2013-02-25 04:00:00,
2013-02-24 23:06:00,24.5,20.1,30.15,NW,322,0.0,0.0,83,0.00,,,0.00,0,Wunderground v.1.15,2013-02-25 04:06:00,
2013-02-24 23:12:00,24.4,20.0,30.15,North,360,0.0,0.0,83,0.00,,,0.00,0,Wunderground v.1.15,2013-02-25 04:12:00,
2013-02-24 23:17:00,24.2,20.3,30.15,NW,322,0.0,2.0,85,0.00,,,0.00,0,Wunderground v.1.15,2013-02-25 04:17:00,
2013-02-24 23:22:00,24.1,20.2,30.15,NW,324,1.0,1.0,85,0.00,,,0.00,0,Wunderground v.1.15,2013-02-25 04:22:00,
2013-02-24 23:28:00,24.2,20.6,30.15,NW,323,1.0,1.0,86,0.00,,,0.00,0,Wunderground v.1.15,2013-02-25 04:28:00,
2013-02-24 23:33:00,24.3,20.7,30.15,WNW,295,0.0,3.0,86,0.00,,,0.00,0,Wunderground v.1.15,2013-02-25 04:33:00,
2013-02-24 23:38:00,24.4,20.8,30.15,SW,234,1.0,3.0,86,0.00,,,0.00,0,Wunderground v.1.15,2013-02-25 04:38:00,
2013-02-24 23:44:00,24.4,20.5,30.15,SSW,202,2.0,3.0,85,0.00,,,0.00,0,Wunderground v.1.15,2013-02-25 04:44:00,
2013-02-24 23:50:00,24.3,20.4,30.15,SW,223,3.0,5.0,85,0.00,,,0.00,0,Wunderground v.1.15,2013-02-25 04:50:00,
2013-02-24 23:55:00,24.4,20.5,30.15,SW,223,4.0,5.0,85,0.00,,,0.00,0,Wunderground v.1.15,2013-02-25 04:55:00,